If you wish to contribute or participate in the discussions about articles you are invited to join SKYbrary as a registered user

 Actions

Sleetmute Airport

From SKYbrary Wiki

PASL
Airport
ICAO: PASL – IATA: SLQ
Summary
Name Sleetmute Airport
Region North America
Territory Alaska US.gif
Location , Alaska
Serving Sleetmute
Elevation 57.912 m
190 ft
190 ft57.912 m
Type small airport
Coordinates 61° 42' 2.04" N, 157° 9' 57.00" W
Runways
Designator Length Width Surface ROPS
14/32 945 m3,100.394 ft
18 m59.055 ft
GRAVEL-G /


METAR
Observation PASL 110956Z AUTO 00000KT 10SM CLR M02/M04 A2964 RMK AO2 SLP036 T10171039 FZRANO
Station Sleetmute
Date/Time 11 April 2019 09:56:00
Wind direction
Wind speed 00 kts
Lowest cloud amount n/a
Temperature
Dew point
Humidity 84%
QNH hPa
Weather condition n/a